sensor_id;sensor_type;location;lat;lon;timestamp;pressure;altitude;pressure_sealevel;temperature;humidity
45467;BME280;31212;49.734;8.490;2023-06-22T00:01:56;100460.41;;;22.41;76.64
45467;BME280;31212;49.734;8.490;2023-06-22T00:04:23;100444.81;;;22.35;76.34
45467;BME280;31212;49.734;8.490;2023-06-22T00:06:49;100434.94;;;22.39;76.15
45467;BME280;31212;49.734;8.490;2023-06-22T00:09:15;100449.03;;;22.39;75.95
45467;BME280;31212;49.734;8.490;2023-06-22T00:11:42;100452.75;;;22.35;75.71
45467;BME280;31212;49.734;8.490;2023-06-22T00:14:08;100466.59;;;22.40;75.96
45467;BME280;31212;49.734;8.490;2023-06-22T00:16:36;100487.69;;;22.42;76.01
45467;BME280;31212;49.734;8.490;2023-06-22T00:19:03;100527.81;;;22.31;76.92
45467;BME280;31212;49.734;8.490;2023-06-22T00:21:30;100570.00;;;22.36;77.82
45467;BME280;31212;49.734;8.490;2023-06-22T00:23:57;100590.22;;;22.37;77.93
45467;BME280;31212;49.734;8.490;2023-06-22T00:26:23;100586.81;;;22.33;78.01
45467;BME280;31212;49.734;8.490;2023-06-22T00:28:50;100606.47;;;22.27;78.08
45467;BME280;31212;49.734;8.490;2023-06-22T00:31:16;100617.22;;;22.23;78.06
45467;BME280;31212;49.734;8.490;2023-06-22T00:33:44;100619.84;;;22.23;78.01
45467;BME280;31212;49.734;8.490;2023-06-22T00:36:11;100615.53;;;22.22;78.30
45467;BME280;31212;49.734;8.490;2023-06-22T00:38:41;100582.22;;;22.16;77.97
45467;BME280;31212;49.734;8.490;2023-06-22T00:41:07;100550.78;;;22.10;77.24
45467;BME280;31212;49.734;8.490;2023-06-22T00:43:35;100520.03;;;22.07;76.11
45467;BME280;31212;49.734;8.490;2023-06-22T00:46:02;100534.91;;;22.10;76.17
45467;BME280;31212;49.734;8.490;2023-06-22T00:48:29;100599.22;;;22.10;76.85
45467;BME280;31212;49.734;8.490;2023-06-22T00:50:56;100674.00;;;21.92;78.03
45467;BME280;31212;49.734;8.490;2023-06-22T00:53:23;100737.22;;;21.74;79.12
45467;BME280;31212;49.734;8.490;2023-06-22T00:55:49;100785.25;;;21.62;79.94
45467;BME280;31212;49.734;8.490;2023-06-22T00:58:18;100806.88;;;21.48;80.58
45467;BME280;31212;49.734;8.490;2023-06-22T01:00:48;100808.88;;;21.41;80.69
45467;BME280;31212;49.734;8.490;2023-06-22T01:03:15;100794.69;;;21.44;80.68
45467;BME280;31212;49.734;8.490;2023-06-22T01:05:42;100764.53;;;21.49;81.80
45467;BME280;31212;49.734;8.490;2023-06-22T01:08:27;100727.25;;;21.33;84.82
45467;BME280;31212;49.734;8.490;2023-06-22T01:11:01;100648.50;;;20.97;88.82
45467;BME280;31212;49.734;8.490;2023-06-22T01:13:35;100580.28;;;20.61;92.04
45467;BME280;31212;49.734;8.490;2023-06-22T01:16:05;100553.22;;;20.31;94.60
45467;BME280;31212;49.734;8.490;2023-06-22T01:18:35;100521.41;;;20.10;97.24
45467;BME280;31212;49.734;8.490;2023-06-22T01:21:04;100484.69;;;20.06;98.46
45467;BME280;31212;49.734;8.490;2023-06-22T01:23:50;100502.31;;;20.04;98.45
45467;BME280;31212;49.734;8.490;2023-06-22T01:26:20;100554.25;;;20.00;98.87
45467;BME280;31212;49.734;8.490;2023-06-22T01:28:50;100597.38;;;19.99;99.20
45467;BME280;31212;49.734;8.490;2023-06-22T01:31:23;100613.34;;;19.93;100.00
45467;BME280;31212;49.734;8.490;2023-06-22T01:33:53;100630.06;;;19.92;100.00
45467;BME280;31212;49.734;8.490;2023-06-22T01:36:21;100642.19;;;19.97;100.00
45467;BME280;31212;49.734;8.490;2023-06-22T01:38:49;100654.44;;;19.98;100.00
45467;BME280;31212;49.734;8.490;2023-06-22T01:41:18;100653.66;;;19.96;100.00
45467;BME280;31212;49.734;8.490;2023-06-22T01:43:47;100651.94;;;19.95;100.00
45467;BME280;31212;49.734;8.490;2023-06-22T01:46:15;100637.91;;;19.93;100.00
45467;BME280;31212;49.734;8.490;2023-06-22T01:48:45;100632.81;;;19.89;100.00
45467;BME280;31212;49.734;8.490;2023-06-22T01:51:12;100626.69;;;19.88;100.00
45467;BME280;31212;49.734;8.490;2023-06-22T01:53:39;100610.88;;;19.88;100.00
45467;BME280;31212;49.734;8.490;2023-06-22T01:56:05;100618.63;;;19.93;100.00
45467;BME280;31212;49.734;8.490;2023-06-22T01:58:33;100624.75;;;19.93;100.00
45467;BME280;31212;49.734;8.490;2023-06-22T02:01:10;100623.91;;;19.93;100.00
45467;BME280;31212;49.734;8.490;2023-06-22T02:03:44;100625.47;;;19.98;100.00
45467;BME280;31212;49.734;8.490;2023-06-22T02:06:16;100626.13;;;20.05;100.00
45467;BME280;31212;49.734;8.490;2023-06-22T02:08:48;100623.66;;;20.00;100.00
45467;BME280;31212;49.734;8.490;2023-06-22T02:11:18;100628.63;;;20.10;100.00
45467;BME280;31212;49.734;8.490;2023-06-22T02:13:46;100632.94;;;20.12;100.00
45467;BME280;31212;49.734;8.490;2023-06-22T02:16:13;100636.84;;;20.00;100.00
45467;BME280;31212;49.734;8.490;2023-06-22T02:18:46;100636.00;;;19.98;100.00
45467;BME280;31212;49.734;8.490;2023-06-22T02:21:16;100630.78;;;19.97;100.00
45467;BME280;31212;49.734;8.490;2023-06-22T02:23:42;100624.72;;;19.95;100.00
45467;BME280;31212;49.734;8.490;2023-06-22T02:26:09;100632.03;;;19.85;100.00
45467;BME280;31212;49.734;8.490;2023-06-22T02:28:36;100628.31;;;19.92;100.00
45467;BME280;31212;49.734;8.490;2023-06-22T02:31:02;100630.19;;;19.89;100.00
45467;BME280;31212;49.734;8.490;2023-06-22T02:33:29;100624.06;;;19.88;100.00
45467;BME280;31212;49.734;8.490;2023-06-22T02:35:57;100618.97;;;19.82;100.00
45467;BME280;31212;49.734;8.490;2023-06-22T02:38:23;100615.50;;;19.80;100.00
45467;BME280;31212;49.734;8.490;2023-06-22T02:40:51;100621.75;;;19.76;100.00
45467;BME280;31212;49.734;8.490;2023-06-22T02:43:17;100624.44;;;19.74;100.00
45467;BME280;31212;49.734;8.490;2023-06-22T02:45:44;100616.53;;;19.74;100.00
45467;BME280;31212;49.734;8.490;2023-06-22T02:48:11;100620.06;;;19.75;100.00
45467;BME280;31212;49.734;8.490;2023-06-22T02:50:38;100618.38;;;19.72;100.00
45467;BME280;31212;49.734;8.490;2023-06-22T02:53:06;100617.44;;;19.75;100.00
45467;BME280;31212;49.734;8.490;2023-06-22T02:55:37;100618.50;;;19.67;100.00
45467;BME280;31212;49.734;8.490;2023-06-22T02:58:05;100608.81;;;19.70;100.00
45467;BME280;31212;49.734;8.490;2023-06-22T03:00:34;100598.38;;;19.66;100.00
45467;BME280;31212;49.734;8.490;2023-06-22T03:03:00;100595.06;;;19.60;100.00
45467;BME280;31212;49.734;8.490;2023-06-22T03:05:27;100588.19;;;19.56;100.00
45467;BME280;31212;49.734;8.490;2023-06-22T03:07:56;100588.19;;;19.54;100.00
45467;BME280;31212;49.734;8.490;2023-06-22T03:10:24;100585.66;;;19.51;100.00
45467;BME280;31212;49.734;8.490;2023-06-22T03:12:51;100579.44;;;19.54;100.00
45467;BME280;31212;49.734;8.490;2023-06-22T03:15:17;100584.75;;;19.52;100.00
45467;BME280;31212;49.734;8.490;2023-06-22T03:17:45;100587.53;;;19.47;100.00
45467;BME280;31212;49.734;8.490;2023-06-22T03:20:12;100585.66;;;19.51;100.00
45467;BME280;31212;49.734;8.490;2023-06-22T03:22:41;100581.31;;;19.50;100.00
45467;BME280;31212;49.734;8.490;2023-06-22T03:25:09;100577.00;;;19.47;100.00
45467;BME280;31212;49.734;8.490;2023-06-22T03:27:41;100575.25;;;19.48;100.00
45467;BME280;31212;49.734;8.490;2023-06-22T03:30:10;100569.91;;;19.49;100.00
45467;BME280;31212;49.734;8.490;2023-06-22T03:32:38;100568.25;;;19.47;100.00
45467;BME280;31212;49.734;8.490;2023-06-22T03:35:06;100572.56;;;19.49;100.00
45467;BME280;31212;49.734;8.490;2023-06-22T03:37:35;100566.44;;;19.49;100.00
45467;BME280;31212;49.734;8.490;2023-06-22T03:40:02;100559.22;;;19.56;100.00
45467;BME280;31212;49.734;8.490;2023-06-22T03:42:30;100561.06;;;19.52;100.00
45467;BME280;31212;49.734;8.490;2023-06-22T03:44:58;100572.94;;;19.65;100.00
45467;BME280;31212;49.734;8.490;2023-06-22T03:47:26;100563.34;;;19.63;100.00
45467;BME280;31212;49.734;8.490;2023-06-22T03:49:53;100567.56;;;19.69;100.00
45467;BME280;31212;49.734;8.490;2023-06-22T03:52:20;100568.22;;;19.75;100.00
45467;BME280;31212;49.734;8.490;2023-06-22T03:54:46;100567.06;;;19.86;100.00
45467;BME280;31212;49.734;8.490;2023-06-22T03:57:13;100568.56;;;19.93;100.00
45467;BME280;31212;49.734;8.490;2023-06-22T03:59:39;100567.44;;;20.00;100.00
45467;BME280;31212;49.734;8.490;2023-06-22T04:02:07;100570.78;;;20.05;100.00
45467;BME280;31212;49.734;8.490;2023-06-22T04:04:34;100567.25;;;20.06;100.00
45467;BME280;31212;49.734;8.490;2023-06-22T04:07:00;100570.47;;;20.14;100.00
45467;BME280;31212;49.734;8.490;2023-06-22T04:09:27;100578.38;;;20.14;100.00
45467;BME280;31212;49.734;8.490;2023-06-22T04:11:53;100573.88;;;20.18;100.00
45467;BME280;31212;49.734;8.490;2023-06-22T04:14:20;100572.84;;;20.22;100.00
45467;BME280;31212;49.734;8.490;2023-06-22T04:16:46;100574.28;;;20.31;100.00
45467;BME280;31212;49.734;8.490;2023-06-22T04:19:14;100565.66;;;20.27;100.00
45467;BME280;31212;49.734;8.490;2023-06-22T04:21:43;100560.84;;;20.39;100.00
45467;BME280;31212;49.734;8.490;2023-06-22T04:24:10;100571.28;;;20.42;100.00
45467;BME280;31212;49.734;8.490;2023-06-22T04:26:37;100567.41;;;20.52;100.00
45467;BME280;31212;49.734;8.490;2023-06-22T04:29:07;100558.09;;;20.42;100.00
45467;BME280;31212;49.734;8.490;2023-06-22T04:31:34;100566.59;;;20.50;100.00
45467;BME280;31212;49.734;8.490;2023-06-22T04:34:02;100564.50;;;20.60;100.00
45467;BME280;31212;49.734;8.490;2023-06-22T04:36:33;100565.97;;;20.69;99.77
45467;BME280;31212;49.734;8.490;2023-06-22T04:39:04;100558.81;;;20.72;99.06
45467;BME280;31212;49.734;8.490;2023-06-22T04:41:31;100554.19;;;20.79;98.51
45467;BME280;31212;49.734;8.490;2023-06-22T04:44:07;100551.03;;;20.69;98.15
45467;BME280;31212;49.734;8.490;2023-06-22T04:46:33;100553.59;;;20.71;98.33
45467;BME280;31212;49.734;8.490;2023-06-22T04:49:04;100550.16;;;20.69;98.17
45467;BME280;31212;49.734;8.490;2023-06-22T04:51:32;100549.34;;;20.90;97.63
45467;BME280;31212;49.734;8.490;2023-06-22T04:53:59;100554.63;;;20.90;97.58
45467;BME280;31212;49.734;8.490;2023-06-22T04:56:26;100547.22;;;21.00;97.06
45467;BME280;31212;49.734;8.490;2023-06-22T04:58:54;100545.94;;;21.10;96.43
45467;BME280;31212;49.734;8.490;2023-06-22T05:01:22;100533.25;;;21.20;95.53
45467;BME280;31212;49.734;8.490;2023-06-22T05:03:48;100526.06;;;21.24;95.11
45467;BME280;31212;49.734;8.490;2023-06-22T05:06:15;100534.00;;;21.24;94.65
45467;BME280;31212;49.734;8.490;2023-06-22T05:08:44;100521.72;;;21.45;93.64
45467;BME280;31212;49.734;8.490;2023-06-22T05:11:10;100517.97;;;21.50;93.07
45467;BME280;31212;49.734;8.490;2023-06-22T05:13:37;100519.09;;;21.45;93.15
45467;BME280;31212;49.734;8.490;2023-06-22T05:16:04;100509.81;;;21.57;92.84
45467;BME280;31212;49.734;8.490;2023-06-22T05:18:31;100492.59;;;21.68;92.55
45467;BME280;31212;49.734;8.490;2023-06-22T05:20:58;100490.38;;;21.80;92.13
45467;BME280;31212;49.734;8.490;2023-06-22T05:23:25;100494.41;;;21.89;91.39
45467;BME280;31212;49.734;8.490;2023-06-22T05:25:52;100471.41;;;22.11;90.18
45467;BME280;31212;49.734;8.490;2023-06-22T05:28:20;100469.00;;;22.26;89.53
45467;BME280;31212;49.734;8.490;2023-06-22T05:30:48;100456.50;;;22.50;88.90
45467;BME280;31212;49.734;8.490;2023-06-22T05:33:14;100459.25;;;22.47;87.80
45467;BME280;31212;49.734;8.490;2023-06-22T05:35:41;100445.53;;;22.58;86.57
45467;BME280;31212;49.734;8.490;2023-06-22T05:38:07;100429.63;;;22.77;85.74
45467;BME280;31212;49.734;8.490;2023-06-22T05:40:34;100425.91;;;23.00;85.08
45467;BME280;31212;49.734;8.490;2023-06-22T05:43:02;100409.88;;;23.03;83.69
45467;BME280;31212;49.734;8.490;2023-06-22T05:45:28;100397.19;;;23.10;82.96
45467;BME280;31212;49.734;8.490;2023-06-22T05:47:55;100389.94;;;23.32;82.74
45467;BME280;31212;49.734;8.490;2023-06-22T05:50:21;100396.63;;;23.40;81.92
45467;BME280;31212;49.734;8.490;2023-06-22T05:52:48;100381.25;;;23.64;81.00
45467;BME280;31212;49.734;8.490;2023-06-22T05:55:14;100342.47;;;23.79;79.76
45467;BME280;31212;49.734;8.490;2023-06-22T05:57:43;100350.13;;;23.85;79.32
45467;BME280;31212;49.734;8.490;2023-06-22T06:00:12;100333.31;;;24.02;78.31
45467;BME280;31212;49.734;8.490;2023-06-22T06:02:39;100328.44;;;24.10;78.13
45467;BME280;31212;49.734;8.490;2023-06-22T06:05:09;100332.72;;;24.13;77.59
45467;BME280;31212;49.734;8.490;2023-06-22T06:07:36;100318.03;;;24.23;77.29
45467;BME280;31212;49.734;8.490;2023-06-22T06:10:03;100294.47;;;24.17;76.30
45467;BME280;31212;49.734;8.490;2023-06-22T06:12:31;100276.59;;;24.21;75.36
45467;BME280;31212;49.734;8.490;2023-06-22T06:14:57;100271.13;;;24.40;74.53
45467;BME280;31212;49.734;8.490;2023-06-22T06:17:25;100234.97;;;24.53;73.70
45467;BME280;31212;49.734;8.490;2023-06-22T06:19:52;100252.66;;;24.68;73.44
45467;BME280;31212;49.734;8.490;2023-06-22T06:22:18;100213.03;;;24.96;72.22
45467;BME280;31212;49.734;8.490;2023-06-22T06:24:46;100222.63;;;25.13;72.08
45467;BME280;31212;49.734;8.490;2023-06-22T06:27:13;100200.84;;;25.37;70.83
45467;BME280;31212;49.734;8.490;2023-06-22T06:29:40;100173.88;;;25.84;69.87
45467;BME280;31212;49.734;8.490;2023-06-22T06:32:07;100156.81;;;26.16;69.50
45467;BME280;31212;49.734;8.490;2023-06-22T06:34:35;100118.19;;;25.96;68.03
45467;BME280;31212;49.734;8.490;2023-06-22T06:37:02;100096.31;;;26.58;66.80
45467;BME280;31212;49.734;8.490;2023-06-22T06:39:29;100048.25;;;26.08;65.79
45467;BME280;31212;49.734;8.490;2023-06-22T06:41:55;100073.72;;;26.64;65.82
45467;BME280;31212;49.734;8.490;2023-06-22T06:44:22;100038.19;;;26.78;64.65
45467;BME280;31212;49.734;8.490;2023-06-22T06:46:49;100006.59;;;27.34;63.19
45467;BME280;31212;49.734;8.490;2023-06-22T06:49:15;100001.06;;;27.73;62.34
45467;BME280;31212;49.734;8.490;2023-06-22T06:51:43;100002.06;;;27.48;62.37
45467;BME280;31212;49.734;8.490;2023-06-22T06:54:10;99969.84;;;27.98;61.21
45467;BME280;31212;49.734;8.490;2023-06-22T06:56:36;99923.94;;;28.28;59.53
45467;BME280;31212;49.734;8.490;2023-06-22T06:59:03;99884.38;;;28.45;58.26
45467;BME280;31212;49.734;8.490;2023-06-22T07:01:29;99861.03;;;28.81;57.92
45467;BME280;31212;49.734;8.490;2023-06-22T07:03:58;99822.59;;;29.26;56.08
45467;BME280;31212;49.734;8.490;2023-06-22T07:06:25;99802.34;;;29.12;56.00
45467;BME280;31212;49.734;8.490;2023-06-22T07:08:55;99787.84;;;28.93;55.35
45467;BME280;31212;49.734;8.490;2023-06-22T07:11:22;99803.25;;;29.01;55.31
45467;BME280;31212;49.734;8.490;2023-06-22T07:13:48;99854.38;;;28.52;56.61
45467;BME280;31212;49.734;8.490;2023-06-22T07:16:15;99807.47;;;29.88;54.57
45467;BME280;31212;49.734;8.490;2023-06-22T07:18:41;99729.31;;;29.94;52.97
45467;BME280;31212;49.734;8.490;2023-06-22T07:21:08;99750.19;;;28.96;53.77
45467;BME280;31212;49.734;8.490;2023-06-22T07:23:34;99816.41;;;29.25;54.20
45467;BME280;31212;49.734;8.490;2023-06-22T07:26:02;99763.81;;;29.88;52.88
45467;BME280;31212;49.734;8.490;2023-06-22T07:28:31;99736.88;;;30.59;52.02
45467;BME280;31212;49.734;8.490;2023-06-22T07:31:02;99684.28;;;30.58;51.13
45467;BME280;31212;49.734;8.490;2023-06-22T07:33:29;99724.28;;;29.70;52.59
45467;BME280;31212;49.734;8.490;2023-06-22T07:35:55;99689.22;;;31.67;49.93
45467;BME280;31212;49.734;8.490;2023-06-22T07:38:22;99659.34;;;31.52;49.43
45467;BME280;31212;49.734;8.490;2023-06-22T07:40:48;99583.09;;;33.32;46.48
45467;BME280;31212;49.734;8.490;2023-06-22T07:43:17;99513.41;;;33.80;44.27
45467;BME280;31212;49.734;8.490;2023-06-22T07:45:48;99477.97;;;34.97;42.66
45467;BME280;31212;49.734;8.490;2023-06-22T07:48:17;99557.34;;;34.30;44.14
45467;BME280;31212;49.734;8.490;2023-06-22T07:50:43;99513.16;;;35.04;41.99
45467;BME280;31212;49.734;8.490;2023-06-22T07:53:10;99488.78;;;35.52;41.21
45467;BME280;31212;49.734;8.490;2023-06-22T07:55:36;99549.44;;;32.85;43.95
45467;BME280;31212;49.734;8.490;2023-06-22T07:58:03;99637.13;;;32.86;45.18
45467;BME280;31212;49.734;8.490;2023-06-22T08:00:31;99591.84;;;33.34;43.95
45467;BME280;31212;49.734;8.490;2023-06-22T08:02:58;99582.22;;;34.16;43.39
45467;BME280;31212;49.734;8.490;2023-06-22T08:05:25;99561.34;;;32.83;44.17
45467;BME280;31212;49.734;8.490;2023-06-22T08:07:53;99579.19;;;33.94;43.22
45467;BME280;31212;49.734;8.490;2023-06-22T08:10:20;99509.53;;;33.91;42.25
45467;BME280;31212;49.734;8.490;2023-06-22T08:12:46;99538.13;;;34.33;42.47
45467;BME280;31212;49.734;8.490;2023-06-22T08:15:13;99495.06;;;33.92;42.06
45467;BME280;31212;49.734;8.490;2023-06-22T08:17:41;99593.03;;;34.41;43.28
45467;BME280;31212;49.734;8.490;2023-06-22T08:20:08;99448.44;;;35.27;40.37
45467;BME280;31212;49.734;8.490;2023-06-22T08:22:37;99518.91;;;34.53;42.08
45467;BME280;31212;49.734;8.490;2023-06-22T08:25:04;99475.41;;;34.56;41.48
45467;BME280;31212;49.734;8.490;2023-06-22T08:27:31;99474.53;;;35.81;40.02
45467;BME280;31212;49.734;8.490;2023-06-22T08:29:58;99565.31;;;34.80;42.17
45467;BME280;31212;49.734;8.490;2023-06-22T08:32:25;99548.91;;;34.09;42.96
45467;BME280;31212;49.734;8.490;2023-06-22T08:34:53;99428.44;;;33.53;41.38
45467;BME280;31212;49.734;8.490;2023-06-22T08:37:20;99423.88;;;34.51;39.94
45467;BME280;31212;49.734;8.490;2023-06-22T08:39:55;99532.34;;;34.61;41.86
45467;BME280;31212;49.734;8.490;2023-06-22T08:42:22;99518.13;;;33.86;41.92
45467;BME280;31212;49.734;8.490;2023-06-22T08:44:49;99490.28;;;34.92;40.75
45467;BME280;31212;49.734;8.490;2023-06-22T08:47:16;99458.53;;;33.90;40.92
45467;BME280;31212;49.734;8.490;2023-06-22T08:49:43;99528.75;;;35.17;41.29
45467;BME280;31212;49.734;8.490;2023-06-22T08:52:11;99403.34;;;36.27;37.98
45467;BME280;31212;49.734;8.490;2023-06-22T08:54:37;99460.81;;;36.06;39.32
45467;BME280;31212;49.734;8.490;2023-06-22T08:57:04;99453.09;;;34.14;41.21
45467;BME280;31212;49.734;8.490;2023-06-22T08:59:31;99499.75;;;34.23;41.63
45467;BME280;31212;49.734;8.490;2023-06-22T09:01:57;99459.97;;;34.25;40.57
45467;BME280;31212;49.734;8.490;2023-06-22T09:04:24;99467.44;;;34.15;40.43
45467;BME280;31212;49.734;8.490;2023-06-22T09:06:50;99519.25;;;35.61;40.18
45467;BME280;31212;49.734;8.490;2023-06-22T09:09:18;99399.69;;;34.74;39.17
45467;BME280;31212;49.734;8.490;2023-06-22T09:11:45;99452.94;;;35.81;39.24
45467;BME280;31212;49.734;8.490;2023-06-22T09:14:12;99429.03;;;34.69;40.08
45467;BME280;31212;49.734;8.490;2023-06-22T09:16:38;99489.84;;;33.91;41.73
45467;BME280;31212;49.734;8.490;2023-06-22T09:19:05;99501.94;;;34.92;40.62
45467;BME280;31212;49.734;8.490;2023-06-22T09:21:31;99400.28;;;34.93;39.38
45467;BME280;31212;49.734;8.490;2023-06-22T09:23:58;99488.97;;;33.49;42.05
45467;BME280;31212;49.734;8.490;2023-06-22T09:26:26;99482.53;;;34.49;41.19
45467;BME280;31212;49.734;8.490;2023-06-22T09:28:52;99486.69;;;34.60;40.88
45467;BME280;31212;49.734;8.490;2023-06-22T09:31:18;99402.41;;;35.29;38.68
45467;BME280;31212;49.734;8.490;2023-06-22T09:33:50;99353.69;;;36.43;36.76
45467;BME280;31212;49.734;8.490;2023-06-22T09:36:16;99281.84;;;36.77;35.29
45467;BME280;31212;49.734;8.490;2023-06-22T09:38:43;99254.03;;;35.74;35.63
45467;BME280;31212;49.734;8.490;2023-06-22T09:41:09;99283.91;;;35.42;36.75
45467;BME280;31212;49.734;8.490;2023-06-22T09:43:37;99316.50;;;35.56;36.86
45467;BME280;31212;49.734;8.490;2023-06-22T09:46:03;99330.38;;;36.27;36.71
45467;BME280;31212;49.734;8.490;2023-06-22T09:48:31;99346.09;;;35.64;37.52
45467;BME280;31212;49.734;8.490;2023-06-22T09:50:57;99271.91;;;37.91;34.24
45467;BME280;31212;49.734;8.490;2023-06-22T09:53:23;99180.97;;;38.50;32.88
45467;BME280;31212;49.734;8.490;2023-06-22T09:55:50;99186.28;;;37.48;34.12
45467;BME280;31212;49.734;8.490;2023-06-22T09:58:16;99136.31;;;37.58;33.12
45467;BME280;31212;49.734;8.490;2023-06-22T10:00:44;99133.59;;;37.51;33.03
45467;BME280;31212;49.734;8.490;2023-06-22T10:03:11;99177.97;;;37.22;33.82
45467;BME280;31212;49.734;8.490;2023-06-22T10:05:37;99229.22;;;37.58;34.46
45467;BME280;31212;49.734;8.490;2023-06-22T10:08:04;99140.22;;;37.90;32.33
45467;BME280;31212;49.734;8.490;2023-06-22T10:10:30;99156.03;;;37.10;33.41
45467;BME280;31212;49.734;8.490;2023-06-22T10:12:57;99275.94;;;37.39;35.21
45467;BME280;31212;49.734;8.490;2023-06-22T10:15:29;99136.34;;;37.23;32.81
45467;BME280;31212;49.734;8.490;2023-06-22T10:17:56;99109.22;;;37.51;32.64
45467;BME280;31212;49.734;8.490;2023-06-22T10:20:23;99176.22;;;37.07;33.98
45467;BME280;31212;49.734;8.490;2023-06-22T10:22:51;99174.72;;;38.57;32.39
45467;BME280;31212;49.734;8.490;2023-06-22T10:25:17;99071.81;;;38.89;30.82
45467;BME280;31212;49.734;8.490;2023-06-22T10:27:44;99040.38;;;38.61;30.86
45467;BME280;31212;49.734;8.490;2023-06-22T10:30:12;99088.53;;;38.79;31.21
45467;BME280;31212;49.734;8.490;2023-06-22T10:32:39;99094.59;;;38.88;31.41
45467;BME280;31212;49.734;8.490;2023-06-22T10:35:08;99115.56;;;40.16;30.61
45467;BME280;31212;49.734;8.490;2023-06-22T10:37:35;99045.97;;;40.34;29.64
45467;BME280;31212;49.734;8.490;2023-06-22T10:40:03;99053.91;;;38.81;30.93
45467;BME280;31212;49.734;8.490;2023-06-22T10:42:30;99075.19;;;40.20;30.09
45467;BME280;31212;49.734;8.490;2023-06-22T10:44:56;99074.34;;;38.10;31.85
45467;BME280;31212;49.734;8.490;2023-06-22T10:47:23;99063.69;;;39.86;30.55
45467;BME280;31212;49.734;8.490;2023-06-22T10:49:49;99009.59;;;40.91;28.99
45467;BME280;31212;49.734;8.490;2023-06-22T10:52:17;98967.44;;;40.81;28.56
45467;BME280;31212;49.734;8.490;2023-06-22T10:54:44;98965.47;;;40.89;28.67
45467;BME280;31212;49.734;8.490;2023-06-22T10:57:10;99014.25;;;41.39;28.50
45467;BME280;31212;49.734;8.490;2023-06-22T10:59:36;98973.72;;;40.82;28.55
45467;BME280;31212;49.734;8.490;2023-06-22T11:02:03;98962.38;;;40.29;28.45
45467;BME280;31212;49.734;8.490;2023-06-22T11:04:30;98982.81;;;40.13;28.89
45467;BME280;31212;49.734;8.490;2023-06-22T11:06:56;98978.72;;;40.66;28.38
45467;BME280;31212;49.734;8.490;2023-06-22T11:09:24;99032.09;;;39.53;30.04
45467;BME280;31212;49.734;8.490;2023-06-22T11:11:52;98958.28;;;40.39;28.07
45467;BME280;31212;49.734;8.490;2023-06-22T11:14:19;98988.63;;;40.35;28.93
45467;BME280;31212;49.734;8.490;2023-06-22T11:16:46;98981.38;;;40.11;28.89
45467;BME280;31212;49.734;8.490;2023-06-22T11:19:12;98983.72;;;40.00;29.33
45467;BME280;31212;49.734;8.490;2023-06-22T11:21:39;98994.44;;;39.70;29.25
45467;BME280;31212;49.734;8.490;2023-06-22T11:24:06;99063.91;;;38.87;31.29
45467;BME280;31212;49.734;8.490;2023-06-22T11:26:34;99120.47;;;38.36;32.64
45467;BME280;31212;49.734;8.490;2023-06-22T11:29:00;99090.94;;;39.14;31.21
45467;BME280;31212;49.734;8.490;2023-06-22T11:31:30;99124.38;;;39.21;31.74
45467;BME280;31212;49.734;8.490;2023-06-22T11:33:59;99159.47;;;38.96;32.76
45467;BME280;31212;49.734;8.490;2023-06-22T11:36:26;99092.31;;;38.64;31.86
45467;BME280;31212;49.734;8.490;2023-06-22T11:38:54;99023.91;;;37.95;31.67
45467;BME280;31212;49.734;8.490;2023-06-22T11:41:21;99032.03;;;37.89;31.64
45467;BME280;31212;49.734;8.490;2023-06-22T11:43:49;99002.75;;;37.30;31.70
45467;BME280;31212;49.734;8.490;2023-06-22T11:46:18;99007.94;;;37.32;31.83
45467;BME280;31212;49.734;8.490;2023-06-22T11:48:45;99044.38;;;37.36;32.58
45467;BME280;31212;49.734;8.490;2023-06-22T11:51:11;98993.66;;;36.96;32.16
45467;BME280;31212;49.734;8.490;2023-06-22T11:53:38;99033.84;;;37.68;31.88
45467;BME280;31212;49.734;8.490;2023-06-22T11:56:04;99061.28;;;38.27;31.53
45467;BME280;31212;49.734;8.490;2023-06-22T11:58:31;99021.19;;;38.15;31.23
45467;BME280;31212;49.734;8.490;2023-06-22T12:00:59;99059.00;;;37.42;32.37
45467;BME280;31212;49.734;8.490;2023-06-22T12:03:25;99049.81;;;37.36;32.22
45467;BME280;31212;49.734;8.490;2023-06-22T12:05:52;99100.63;;;38.09;32.29
45467;BME280;31212;49.734;8.490;2023-06-22T12:08:18;99042.88;;;38.15;31.13
45467;BME280;31212;49.734;8.490;2023-06-22T12:10:45;99044.34;;;38.45;31.12
45467;BME280;31212;49.734;8.490;2023-06-22T12:13:12;99027.47;;;38.23;31.14
45467;BME280;31212;49.734;8.490;2023-06-22T12:15:38;99030.53;;;37.66;31.89
45467;BME280;31212;49.734;8.490;2023-06-22T12:18:06;99032.28;;;36.83;32.78
45467;BME280;31212;49.734;8.490;2023-06-22T12:20:33;99053.09;;;36.83;32.95
45467;BME280;31212;49.734;8.490;2023-06-22T12:23:00;99033.34;;;36.82;32.44
45467;BME280;31212;49.734;8.490;2023-06-22T12:25:26;99051.53;;;36.39;33.10
45467;BME280;31212;49.734;8.490;2023-06-22T12:27:53;99108.69;;;36.64;34.21
45467;BME280;31212;49.734;8.490;2023-06-22T12:30:20;99082.22;;;36.81;33.52
45467;BME280;31212;49.734;8.490;2023-06-22T12:32:46;99097.97;;;36.77;33.67
45467;BME280;31212;49.734;8.490;2023-06-22T12:35:14;99084.25;;;36.50;33.96
45467;BME280;31212;49.734;8.490;2023-06-22T12:37:41;99083.31;;;36.15;33.71
45467;BME280;31212;49.734;8.490;2023-06-22T12:40:09;99093.41;;;36.06;34.15
45467;BME280;31212;49.734;8.490;2023-06-22T12:42:36;99120.75;;;36.40;34.05
45467;BME280;31212;49.734;8.490;2023-06-22T12:45:04;99137.38;;;36.86;33.72
45467;BME280;31212;49.734;8.490;2023-06-22T12:47:30;99089.03;;;37.12;32.80
45467;BME280;31212;49.734;8.490;2023-06-22T12:49:57;99096.38;;;37.73;32.26
45467;BME280;31212;49.734;8.490;2023-06-22T12:52:25;99104.28;;;37.75;32.36
45467;BME280;31212;49.734;8.490;2023-06-22T12:54:51;99056.97;;;37.57;32.28